Time;durP1;ratioP1;P1;durP2;ratioP2;P2;SDS_P1;SDS_P2;PMS_P1;PMS_P2;Temp;Humidity;BMP_temperature;BMP_pressure;BME280_temperature;BME280_humidity;BME280_pressure;Samples;Min_cycle;Max_cycle;Signal;HPM_P1;HPM_P2
2023/08/04 00:01:03;;;;;;;13.70;6.17;;;13.80;99.90;;;;;;5051292;28;20228;-59
2023/08/04 00:03:31;;;;;;;15.03;6.07;;;13.80;99.90;;;;;;5051775;28;20188;-59
2023/08/04 00:05:59;;;;;;;12.33;5.93;;;13.80;99.90;;;;;;5049876;28;20232;-59
2023/08/04 00:08:28;;;;;;;17.63;6.40;;;13.80;99.90;;;;;;5046384;28;20240;-59
2023/08/04 00:10:56;;;;;;;10.10;6.10;;;13.80;99.90;;;;;;5044281;28;20226;-59
2023/08/04 00:13:24;;;;;;;12.40;6.13;;;13.70;99.90;;;;;;5044692;28;20218;-59
2023/08/04 00:15:53;;;;;;;22.53;6.47;;;13.70;99.90;;;;;;5041838;28;20234;-59
2023/08/04 00:18:22;;;;;;;16.97;6.47;;;13.70;99.90;;;;;;5022381;28;20202;-59
2023/08/04 00:20:51;;;;;;;12.23;6.83;;;13.70;99.90;;;;;;5046234;28;20214;-60
2023/08/04 00:23:19;;;;;;;16.07;6.83;;;13.80;99.90;;;;;;5044757;28;20238;-60
2023/08/04 00:25:47;;;;;;;11.07;7.03;;;13.80;99.90;;;;;;5040932;28;20214;-60
2023/08/04 00:28:15;;;;;;;9.93;6.50;;;13.80;99.90;;;;;;5046111;28;20243;-60
2023/08/04 00:30:44;;;;;;;14.07;6.83;;;13.80;99.90;;;;;;5041382;28;20228;-60
2023/08/04 00:33:12;;;;;;;19.33;7.87;;;13.90;99.90;;;;;;5047299;28;20321;-59
2023/08/04 00:35:42;;;;;;;17.73;7.37;;;13.90;99.90;;;;;;5041595;28;20236;-60
2023/08/04 00:38:10;;;;;;;17.00;6.53;;;13.90;99.90;;;;;;5047427;28;20311;-60
2023/08/04 00:40:38;;;;;;;26.37;7.03;;;13.90;99.90;;;;;;5034970;28;20223;-60
2023/08/04 00:43:07;;;;;;;13.87;6.63;;;13.80;99.90;;;;;;5042816;28;20192;-60
2023/08/04 00:45:36;;;;;;;16.30;6.93;;;13.80;99.90;;;;;;5042023;28;20192;-59
2023/08/04 00:48:04;;;;;;;16.47;6.70;;;13.80;99.90;;;;;;5046417;28;20252;-60
2023/08/04 00:50:34;;;;;;;13.50;6.83;;;13.70;99.90;;;;;;5045824;28;20241;-60
2023/08/04 00:53:04;;;;;;;15.67;6.93;;;13.80;99.90;;;;;;5048423;28;20240;-60
2023/08/04 00:55:33;;;;;;;17.13;6.93;;;13.80;99.90;;;;;;5042763;28;20594;-60
2023/08/04 00:58:02;;;;;;;14.90;8.10;;;13.80;99.90;;;;;;5044279;28;20669;-59
2023/08/04 01:00:31;;;;;;;21.23;8.10;;;13.80;99.90;;;;;;5044073;28;20663;-59
2023/08/04 01:02:59;;;;;;;18.13;7.37;;;13.90;99.90;;;;;;5040668;28;20221;-59
2023/08/04 01:05:37;;;;;;;12.63;7.57;;;13.90;99.90;;;;;;5037730;28;20228;-59
2023/08/04 01:08:15;;;;;;;16.47;7.43;;;13.90;99.90;;;;;;5039835;28;20227;-58
2023/08/04 01:10:51;;;;;;;11.57;6.77;;;13.90;99.90;;;;;;5041515;28;20225;-59
2023/08/04 01:13:21;;;;;;;13.87;7.07;;;13.90;99.90;;;;;;5047438;28;20222;-59
2023/08/04 01:15:51;;;;;;;19.87;7.93;;;13.90;99.90;;;;;;5042987;28;20667;-58
2023/08/04 01:18:21;;;;;;;15.30;7.20;;;13.90;99.90;;;;;;5039270;28;20285;-59
2023/08/04 01:20:49;;;;;;;12.90;7.30;;;13.90;99.90;;;;;;5046580;28;20774;-60
2023/08/04 01:23:19;;;;;;;17.17;6.50;;;13.90;99.90;;;;;;5047168;28;20311;-59
2023/08/04 01:25:48;;;;;;;10.07;6.33;;;13.80;99.90;;;;;;5039542;28;20321;-59
2023/08/04 01:28:17;;;;;;;14.47;7.10;;;13.80;99.90;;;;;;5042551;28;20240;-59
2023/08/04 01:30:50;;;;;;;12.40;7.40;;;13.80;99.90;;;;;;5044833;28;20212;-59
2023/08/04 01:33:18;;;;;;;15.80;6.77;;;13.80;99.90;;;;;;5041202;28;20217;-59
2023/08/04 01:35:47;;;;;;;14.37;6.87;;;13.80;99.90;;;;;;5045168;28;20220;-59
2023/08/04 01:38:15;;;;;;;12.03;7.00;;;13.80;99.90;;;;;;5039650;28;20225;-59
2023/08/04 01:40:45;;;;;;;11.50;6.40;;;13.70;99.90;;;;;;5042394;28;20256;-59
2023/08/04 01:43:13;;;;;;;11.63;6.80;;;13.70;99.90;;;;;;5048402;28;20225;-59
2023/08/04 01:45:41;;;;;;;11.33;7.40;;;13.80;99.90;;;;;;5047853;28;20185;-59
2023/08/04 01:48:10;;;;;;;13.33;7.33;;;13.80;99.90;;;;;;5046750;28;20631;-58
2023/08/04 01:50:38;;;;;;;9.43;6.33;;;13.80;99.90;;;;;;5048282;28;20215;-59
2023/08/04 01:53:08;;;;;;;14.27;6.63;;;13.80;99.90;;;;;;5037032;28;20225;-59
2023/08/04 01:55:36;;;;;;;21.17;7.57;;;13.80;99.90;;;;;;5017929;28;20229;-59
2023/08/04 01:58:06;;;;;;;16.20;6.90;;;13.90;99.90;;;;;;5016412;28;20284;-59
2023/08/04 02:00:35;;;;;;;12.63;7.30;;;14.00;99.90;;;;;;5030955;28;20214;-59
2023/08/04 02:03:04;;;;;;;8.63;6.63;;;14.00;99.90;;;;;;5031428;28;20328;-59
2023/08/04 02:05:32;;;;;;;17.27;7.50;;;14.00;99.90;;;;;;5026608;28;20222;-59
2023/08/04 02:08:00;;;;;;;14.03;7.73;;;14.10;99.90;;;;;;5026558;28;20214;-59
2023/08/04 02:10:29;;;;;;;13.27;7.27;;;14.10;99.90;;;;;;5018405;28;20218;-59
2023/08/04 02:12:58;;;;;;;16.77;7.63;;;14.20;99.90;;;;;;5026290;28;20292;-59
2023/08/04 02:15:27;;;;;;;12.43;6.87;;;14.20;99.90;;;;;;5025021;28;20218;-59
2023/08/04 02:17:56;;;;;;;16.40;6.77;;;14.30;99.90;;;;;;5019357;28;20224;-59
2023/08/04 02:20:24;;;;;;;13.10;6.73;;;14.30;99.90;;;;;;5031138;28;20239;-59
2023/08/04 02:22:52;;;;;;;9.80;6.97;;;14.30;99.90;;;;;;5022418;28;20222;-59
2023/08/04 02:25:21;;;;;;;12.57;6.87;;;14.30;99.90;;;;;;5004959;28;20235;-59
2023/08/04 02:27:50;;;;;;;14.40;6.53;;;14.30;99.90;;;;;;5021107;28;20194;-59
2023/08/04 02:30:18;;;;;;;8.87;6.70;;;14.40;99.90;;;;;;5016020;28;20223;-59
2023/08/04 02:32:48;;;;;;;14.67;6.03;;;14.40;99.90;;;;;;5029126;28;20309;-59
2023/08/04 02:35:19;;;;;;;12.20;6.27;;;14.40;99.90;;;;;;5018240;28;20236;-59
2023/08/04 02:37:48;;;;;;;12.10;6.97;;;14.50;99.90;;;;;;5029870;28;20225;-59
2023/08/04 02:40:17;;;;;;;9.07;6.27;;;14.50;99.90;;;;;;5020070;28;20233;-59
2023/08/04 02:42:45;;;;;;;15.07;6.50;;;14.50;99.90;;;;;;5029450;28;20274;-59
2023/08/04 02:45:14;;;;;;;14.03;7.13;;;14.60;99.90;;;;;;5030817;28;20218;-59
2023/08/04 02:47:42;;;;;;;13.77;6.73;;;14.60;99.90;;;;;;5009137;28;20227;-59
2023/08/04 02:50:12;;;;;;;15.67;6.87;;;14.60;99.90;;;;;;5024957;28;20246;-59
2023/08/04 02:52:40;;;;;;;10.80;6.80;;;14.60;99.90;;;;;;5035353;28;20231;-59
2023/08/04 02:55:10;;;;;;;8.83;6.87;;;14.60;99.90;;;;;;5049092;28;20195;-59
2023/08/04 02:57:38;;;;;;;9.63;6.47;;;14.60;99.90;;;;;;5047796;28;20195;-59
2023/08/04 03:00:08;;;;;;;10.13;7.53;;;14.60;99.90;;;;;;5056896;28;20607;-59
2023/08/04 03:02:36;;;;;;;10.50;7.33;;;14.50;99.90;;;;;;5037654;28;20746;-59
2023/08/04 03:05:05;;;;;;;13.53;7.73;;;14.50;99.90;;;;;;5040660;28;20666;-59
2023/08/04 03:07:35;;;;;;;9.10;6.40;;;14.50;99.90;;;;;;5046377;28;20721;-59
2023/08/04 03:10:04;;;;;;;11.60;6.90;;;14.50;99.90;;;;;;5031292;28;21545;-59
2023/08/04 03:12:32;;;;;;;9.37;7.03;;;14.50;99.90;;;;;;5023854;28;20197;-59
2023/08/04 03:15:02;;;;;;;12.30;7.30;;;14.50;99.90;;;;;;5055155;28;20227;-59
2023/08/04 03:17:30;;;;;;;11.77;7.30;;;14.50;99.90;;;;;;5052268;28;20326;-59
2023/08/04 03:20:01;;;;;;;12.10;6.77;;;14.50;99.90;;;;;;5046530;28;20312;-59
2023/08/04 03:22:29;;;;;;;11.07;6.87;;;14.50;99.90;;;;;;5041242;28;20228;-59
2023/08/04 03:24:59;;;;;;;12.60;6.97;;;14.50;99.90;;;;;;5036672;28;20188;-58
2023/08/04 03:27:28;;;;;;;13.60;7.17;;;14.50;99.90;;;;;;5049249;28;20215;-59
2023/08/04 03:29:56;;;;;;;8.40;6.13;;;14.50;99.90;;;;;;5044460;28;20221;-59
2023/08/04 03:32:24;;;;;;;8.37;6.73;;;14.50;99.90;;;;;;5041296;28;20300;-59
2023/08/04 03:34:53;;;;;;;14.80;7.23;;;14.40;99.90;;;;;;5036890;28;20304;-59
2023/08/04 03:37:21;;;;;;;10.90;7.37;;;14.40;99.90;;;;;;5027840;28;20231;-59
2023/08/04 03:39:49;;;;;;;8.97;7.03;;;14.30;99.90;;;;;;5048887;28;20244;-59
2023/08/04 03:42:19;;;;;;;11.43;7.43;;;14.30;99.90;;;;;;5037987;28;20237;-59
2023/08/04 03:44:47;;;;;;;9.30;7.33;;;14.20;99.90;;;;;;5048381;28;20612;-59
2023/08/04 03:47:15;;;;;;;10.70;7.50;;;14.10;99.90;;;;;;5039270;28;20225;-59
2023/08/04 03:49:44;;;;;;;11.50;7.43;;;14.10;99.90;;;;;;5049602;28;20225;-59
2023/08/04 03:52:12;;;;;;;12.03;7.97;;;14.00;99.90;;;;;;5037289;28;20316;-59
2023/08/04 03:54:40;;;;;;;13.00;7.90;;;14.00;99.90;;;;;;5024788;28;20193;-59
2023/08/04 03:57:09;;;;;;;11.63;7.63;;;14.00;99.90;;;;;;5017939;28;20233;-59
2023/08/04 03:59:38;;;;;;;12.70;8.93;;;14.00;99.90;;;;;;5021911;28;20217;-59
2023/08/04 04:02:07;;;;;;;12.20;7.90;;;13.90;99.90;;;;;;5031287;28;20227;-59
2023/08/04 04:04:36;;;;;;;11.70;9.10;;;13.90;99.90;;;;;;5024975;28;20265;-59
2023/08/04 04:07:04;;;;;;;14.63;9.43;;;13.80;99.90;;;;;;5019429;28;20196;-59
2023/08/04 04:09:32;;;;;;;18.27;10.20;;;13.80;99.90;;;;;;5030576;28;20587;-59
2023/08/04 04:12:01;;;;;;;18.73;9.70;;;13.90;99.90;;;;;;5024675;28;20227;-59
2023/08/04 04:14:29;;;;;;;13.40;8.97;;;13.80;99.90;;;;;;5024017;28;20222;-59
2023/08/04 04:16:59;;;;;;;11.70;9.20;;;13.80;99.90;;;;;;5030575;28;20225;-59
2023/08/04 04:19:27;;;;;;;13.33;9.07;;;13.80;99.90;;;;;;5024103;28;20229;-59
2023/08/04 04:21:56;;;;;;;12.40;9.13;;;13.70;99.90;;;;;;5031139;28;20190;-59
2023/08/04 04:24:24;;;;;;;15.60;9.40;;;13.70;99.90;;;;;;5000946;28;20205;-59
2023/08/04 04:26:52;;;;;;;12.37;9.70;;;13.60;99.90;;;;;;5021677;28;20220;-59
2023/08/04 04:29:21;;;;;;;17.37;11.10;;;13.60;99.90;;;;;;5008450;28;20581;-59
2023/08/04 04:31:49;;;;;;;19.07;11.43;;;13.60;99.90;;;;;;5022505;28;20321;-59
2023/08/04 04:34:19;;;;;;;16.73;11.03;;;13.60;99.90;;;;;;5017259;28;20225;-59
2023/08/04 04:36:48;;;;;;;16.90;11.20;;;13.60;99.90;;;;;;5016937;28;20670;-59
2023/08/04 04:39:35;;;;;;;17.43;11.67;;;13.60;99.90;;;;;;5021750;28;20704;-59
2023/08/04 04:42:05;;;;;;;17.33;11.20;;;13.70;99.90;;;;;;5001932;28;20220;-59
2023/08/04 04:44:33;;;;;;;17.63;11.40;;;13.70;99.90;;;;;;5022706;28;20230;-61
2023/08/04 04:47:01;;;;;;;18.27;11.87;;;13.70;99.90;;;;;;5019145;28;20268;-59
2023/08/04 04:49:31;;;;;;;14.73;10.77;;;13.80;99.90;;;;;;5031889;28;20222;-59
2023/08/04 04:51:59;;;;;;;21.20;12.37;;;13.90;99.90;;;;;;5039878;28;20233;-59
2023/08/04 04:54:28;;;;;;;20.10;11.90;;;14.00;99.90;;;;;;5041586;28;20741;-59
2023/08/04 04:56:56;;;;;;;18.80;12.63;;;14.10;99.90;;;;;;5052277;28;20228;-59
2023/08/04 04:59:24;;;;;;;20.70;12.60;;;14.20;99.90;;;;;;5042163;28;23782;-59
2023/08/04 05:01:52;;;;;;;21.20;13.53;;;14.30;99.90;;;;;;5030881;28;20221;-59
2023/08/04 05:04:21;;;;;;;20.47;12.17;;;14.40;99.90;;;;;;5040468;28;20677;-59
2023/08/04 05:06:51;;;;;;;19.27;12.00;;;14.40;99.90;;;;;;5037354;28;20730;-59
2023/08/04 05:09:19;;;;;;;21.37;13.33;;;14.50;99.90;;;;;;5030332;28;20240;-59
2023/08/04 05:11:47;;;;;;;19.70;11.20;;;14.50;99.90;;;;;;5038288;28;20226;-59
2023/08/04 05:14:16;;;;;;;20.17;12.67;;;14.60;99.90;;;;;;5049154;28;20242;-59
2023/08/04 05:16:45;;;;;;;18.17;11.73;;;14.70;99.90;;;;;;5042816;28;20689;-59
2023/08/04 05:19:13;;;;;;;18.53;11.97;;;14.80;99.90;;;;;;5045858;28;20226;-59
2023/08/04 05:21:41;;;;;;;18.90;10.93;;;14.90;99.90;;;;;;5048585;28;20202;-59
2023/08/04 05:24:12;;;;;;;17.63;10.97;;;15.00;99.90;;;;;;5051576;28;20225;-59
2023/08/04 05:26:40;;;;;;;21.43;11.30;;;15.00;99.90;;;;;;5046640;28;20302;-59
2023/08/04 05:29:09;;;;;;;15.60;10.40;;;15.10;99.90;;;;;;5048845;28;20219;-59
2023/08/04 05:31:37;;;;;;;14.60;10.00;;;15.10;99.90;;;;;;5047079;28;20315;-59
2023/08/04 05:34:05;;;;;;;18.87;10.80;;;15.20;99.90;;;;;;5048829;28;20248;-59
2023/08/04 05:36:33;;;;;;;14.17;9.50;;;15.20;99.90;;;;;;5031231;28;20200;-59
2023/08/04 05:39:02;;;;;;;19.90;9.37;;;15.30;99.90;;;;;;5036097;28;20314;-60
2023/08/04 05:41:31;;;;;;;14.03;9.30;;;15.40;99.90;;;;;;5048944;28;20561;-59
2023/08/04 05:44:00;;;;;;;13.50;8.40;;;15.50;99.90;;;;;;5047955;28;20713;-59
2023/08/04 05:46:28;;;;;;;14.13;8.67;;;15.60;99.90;;;;;;5022119;28;20698;-60
2023/08/04 05:48:56;;;;;;;12.97;8.63;;;15.70;99.90;;;;;;5045599;28;20610;-59
2023/08/04 05:51:25;;;;;;;10.80;7.97;;;15.80;99.90;;;;;;5045946;28;20705;-59
2023/08/04 05:53:53;;;;;;;12.80;8.00;;;15.80;99.90;;;;;;5042766;28;20226;-59
2023/08/04 05:56:21;;;;;;;11.03;7.50;;;15.90;99.90;;;;;;5034509;28;20227;-59
2023/08/04 05:58:51;;;;;;;8.80;6.87;;;16.00;99.90;;;;;;5035727;28;20589;-59
2023/08/04 06:01:27;;;;;;;13.20;7.80;;;16.00;99.90;;;;;;5040194;28;20236;-60
2023/08/04 06:03:56;;;;;;;17.23;7.47;;;16.00;99.90;;;;;;5046101;28;20191;-59
2023/08/04 06:06:31;;;;;;;9.30;7.70;;;16.00;99.90;;;;;;5042073;28;20194;-59
2023/08/04 06:09:01;;;;;;;10.57;7.17;;;16.10;99.90;;;;;;5031011;28;20232;-59
2023/08/04 06:11:31;;;;;;;11.60;7.27;;;16.20;99.90;;;;;;5035912;28;20258;-59
2023/08/04 06:14:03;;;;;;;12.13;7.50;;;16.20;99.90;;;;;;5042678;28;20233;-60
2023/08/04 06:16:35;;;;;;;8.67;6.47;;;16.20;99.90;;;;;;5042875;28;20577;-60
2023/08/04 06:19:05;;;;;;;9.70;6.03;;;16.20;99.90;;;;;;5039285;28;20524;-59
2023/08/04 06:21:36;;;;;;;8.87;6.73;;;16.30;99.90;;;;;;5045272;28;20243;-60
2023/08/04 06:24:05;;;;;;;12.20;6.40;;;16.30;99.90;;;;;;5040077;28;20722;-60
2023/08/04 06:26:33;;;;;;;10.30;7.00;;;16.30;99.90;;;;;;5036691;28;20722;-60
2023/08/04 06:29:03;;;;;;;9.47;7.00;;;16.30;99.90;;;;;;5038816;28;20238;-60
2023/08/04 06:31:31;;;;;;;14.80;7.10;;;16.40;99.90;;;;;;5047647;28;20363;-60
2023/08/04 06:33:59;;;;;;;8.10;6.27;;;16.40;99.90;;;;;;5046851;28;20181;-60
2023/08/04 06:36:28;;;;;;;10.77;6.80;;;16.40;99.90;;;;;;5051606;28;20197;-60
2023/08/04 06:38:56;;;;;;;6.57;5.00;;;16.50;99.90;;;;;;5051355;28;20220;-60
2023/08/04 06:41:24;;;;;;;4.90;4.37;;;16.40;99.90;;;;;;5040237;28;20223;-61
2023/08/04 06:43:53;;;;;;;4.50;3.73;;;16.30;99.90;;;;;;5039181;28;20223;-60
2023/08/04 06:46:22;;;;;;;3.57;3.27;;;16.10;99.90;;;;;;5053024;28;20228;-61
2023/08/04 06:48:51;;;;;;;3.17;2.77;;;16.00;99.90;;;;;;5049482;28;20185;-60
2023/08/04 06:51:19;;;;;;;2.90;2.70;;;15.80;99.90;;;;;;5045559;28;20644;-60
2023/08/04 06:53:48;;;;;;;3.00;2.80;;;15.70;99.90;;;;;;5032418;28;20227;-60
2023/08/04 06:56:16;;;;;;;2.50;2.40;;;15.60;99.90;;;;;;5030842;28;20304;-60
2023/08/04 06:58:44;;;;;;;3.80;2.90;;;15.60;99.90;;;;;;5030769;28;20235;-60
2023/08/04 07:01:13;;;;;;;3.00;2.80;;;15.60;99.90;;;;;;5031634;28;20229;-61
2023/08/04 07:03:47;;;;;;;3.80;2.83;;;15.60;99.90;;;;;;5027939;28;20960;-60
2023/08/04 07:06:16;;;;;;;2.97;2.60;;;15.70;99.90;;;;;;5031735;28;20217;-61
2023/08/04 07:08:44;;;;;;;3.53;3.20;;;15.70;99.90;;;;;;5018595;28;20264;-60
2023/08/04 07:11:16;;;;;;;3.43;3.17;;;15.90;99.90;;;;;;5033183;28;20233;-60
2023/08/04 07:13:45;;;;;;;3.50;3.20;;;16.00;99.90;;;;;;5030620;28;20250;-60
2023/08/04 07:16:13;;;;;;;3.17;3.00;;;16.10;99.90;;;;;;5009162;28;20239;-61
2023/08/04 07:18:43;;;;;;;4.40;3.53;;;16.20;99.90;;;;;;5027887;28;20215;-60
2023/08/04 07:21:13;;;;;;;3.77;3.57;;;16.30;99.90;;;;;;5032436;28;20216;-60
2023/08/04 07:23:42;;;;;;;3.93;3.10;;;16.40;99.90;;;;;;5028351;28;20650;-60
2023/08/04 07:26:11;;;;;;;4.60;3.17;;;16.50;99.90;;;;;;5029839;28;20232;-61
2023/08/04 07:28:39;;;;;;;3.60;3.30;;;16.60;99.90;;;;;;5030891;28;20574;-60
2023/08/04 07:31:09;;;;;;;3.60;3.40;;;16.70;99.90;;;;;;5030252;28;20208;-61
2023/08/04 07:33:38;;;;;;;4.50;3.17;;;16.70;99.90;;;;;;5031509;28;20639;-60
2023/08/04 07:36:08;;;;;;;3.20;3.10;;;16.50;99.90;;;;;;5024677;28;20221;-60
2023/08/04 07:38:37;;;;;;;4.20;3.40;;;16.50;99.90;;;;;;5026715;28;20213;-60
2023/08/04 07:41:05;;;;;;;4.73;4.00;;;16.50;99.90;;;;;;5030461;28;20561;-60
2023/08/04 07:43:33;;;;;;;4.50;3.30;;;16.50;99.90;;;;;;5027665;28;20679;-61
2023/08/04 07:46:02;;;;;;;5.10;4.30;;;16.50;99.90;;;;;;5015169;28;20185;-60
2023/08/04 07:48:30;;;;;;;3.73;3.43;;;16.50;99.90;;;;;;5029824;28;20536;-61
2023/08/04 07:51:01;;;;;;;4.70;4.20;;;16.60;99.90;;;;;;5010713;28;20229;-60
2023/08/04 07:53:31;;;;;;;7.43;5.00;;;16.70;99.90;;;;;;5044130;28;20229;-60
2023/08/04 07:55:59;;;;;;;4.60;4.20;;;16.80;99.90;;;;;;5040589;28;20224;-60
2023/08/04 07:58:28;;;;;;;3.90;3.50;;;16.90;99.90;;;;;;5032978;28;20627;-61
2023/08/04 08:00:56;;;;;;;4.23;3.67;;;17.10;99.90;;;;;;5043360;28;20305;-61
2023/08/04 08:03:25;;;;;;;3.80;3.50;;;17.30;99.90;;;;;;5045342;28;20201;-60
2023/08/04 08:05:53;;;;;;;3.87;3.20;;;17.40;99.90;;;;;;5043652;28;20224;-60
2023/08/04 08:08:21;;;;;;;3.47;3.20;;;17.60;99.90;;;;;;5049413;28;20215;-60
2023/08/04 08:10:51;;;;;;;3.17;2.87;;;17.90;99.90;;;;;;5031108;28;20216;-60
2023/08/04 08:13:20;;;;;;;2.73;2.53;;;18.20;99.90;;;;;;5045338;28;20216;-60
2023/08/04 08:15:49;;;;;;;3.33;2.63;;;18.50;99.90;;;;;;5048975;28;20280;-60
2023/08/04 08:18:17;;;;;;;2.60;2.40;;;18.70;99.90;;;;;;5035172;28;20221;-60
2023/08/04 08:20:45;;;;;;;4.50;3.20;;;18.90;99.90;;;;;;5040001;28;20245;-60
2023/08/04 08:23:14;;;;;;;4.30;3.07;;;19.10;99.90;;;;;;5045186;28;20227;-60
2023/08/04 08:25:42;;;;;;;4.70;3.23;;;19.20;99.90;;;;;;5048236;28;20303;-60
2023/08/04 08:28:12;;;;;;;4.50;3.50;;;19.20;99.90;;;;;;5044688;28;20233;-60
2023/08/04 08:30:40;;;;;;;4.77;3.60;;;19.40;99.90;;;;;;5047124;28;20212;-60
2023/08/04 08:33:09;;;;;;;4.47;3.10;;;19.70;99.90;;;;;;5041612;28;21076;-60
2023/08/04 08:35:37;;;;;;;3.10;2.90;;;19.80;99.90;;;;;;5043425;28;20254;-60
2023/08/04 08:38:05;;;;;;;3.70;3.47;;;20.00;99.90;;;;;;5031147;28;20650;-61
2023/08/04 08:40:34;;;;;;;4.03;3.53;;;20.10;91.40;;;;;;5042051;28;20244;-60
2023/08/04 08:43:03;;;;;;;4.23;3.70;;;20.30;97.50;;;;;;5045822;28;20201;-60
2023/08/04 08:45:35;;;;;;;3.50;3.30;;;20.50;88.80;;;;;;5042253;28;20187;-61
2023/08/04 08:48:06;;;;;;;4.90;3.60;;;20.60;77.40;;;;;;5040939;28;20239;-60
2023/08/04 08:50:35;;;;;;;11.37;7.83;;;21.00;69.30;;;;;;5020370;28;20228;-61
2023/08/04 08:53:09;;;;;;;13.23;9.70;;;21.30;70.60;;;;;;5027864;28;20324;-61
2023/08/04 08:55:39;;;;;;;3.27;2.90;;;21.50;54.60;;;;;;5031828;28;20231;-61
2023/08/04 08:58:09;;;;;;;4.20;3.10;;;21.80;1.00;;;;;;5037462;28;20296;-61
2023/08/04 09:00:39;;;;;;;6.97;5.63;;;21.80;1.00;;;;;;5027270;28;20252;-61
2023/08/04 09:03:07;;;;;;;3.53;3.22;;;21.90;23.60;;;;;;5046736;28;20232;-61
2023/08/04 09:05:36;;;;;;;3.40;2.67;;;22.20;13.20;;;;;;5038651;28;20570;-61
2023/08/04 09:08:07;;;;;;;3.00;2.38;;;22.70;3.10;;;;;;5028553;28;20271;-61
2023/08/04 09:10:37;;;;;;;2.40;2.30;;;23.10;1.00;;;;;;5041091;28;20718;-61
2023/08/04 09:13:09;;;;;;;3.65;2.00;;;23.30;1.00;;;;;;5043884;28;20202;-61
2023/08/04 09:15:49;;;;;;;2.47;2.00;;;23.50;1.00;;;;;;5042327;28;20278;-61
2023/08/04 09:18:28;;;;;;;3.75;1.40;;;23.60;1.00;;;;;;5035297;28;20218;-61
2023/08/04 09:20:59;;;;;;;1.67;1.58;;;23.40;1.00;;;;;;5041422;28;20305;-61
2023/08/04 09:23:30;;;;;;;3.45;1.48;;;23.70;1.00;;;;;;5037526;28;20215;-61
2023/08/04 09:25:59;;;;;;;3.65;1.60;;;23.80;1.00;;;;;;5035765;28;20241;-61
2023/08/04 09:28:28;;;;;;;4.10;1.50;;;23.70;1.00;;;;;;5045218;28;20219;-61
2023/08/04 09:31:06;;;;;;;2.50;1.90;;;23.90;99.90;;;;;;5044926;28;20194;-60
2023/08/04 09:33:37;;;;;;;4.85;1.48;;;24.30;99.90;;;;;;5043128;28;20604;-61
2023/08/04 09:36:08;;;;;;;3.20;2.05;;;24.50;99.90;;;;;;5039216;28;20226;-60
2023/08/04 09:38:37;;;;;;;2.00;1.90;;;23.80;99.90;;;;;;5043711;28;20239;-60
2023/08/04 09:41:08;;;;;;;1.83;1.73;;;23.20;99.90;;;;;;5043144;28;20217;-60
2023/08/04 09:43:42;;;;;;;2.53;1.70;;;22.90;99.90;;;;;;5031535;28;20227;-60
2023/08/04 09:46:12;;;;;;;1.10;1.10;;;23.40;99.90;;;;;;5038977;28;20650;-60
2023/08/04 09:48:41;;;;;;;1.50;1.40;;;23.60;99.90;;;;;;5044417;28;20205;-60
2023/08/04 09:51:14;;;;;;;2.63;1.37;;;23.40;99.90;;;;;;5021005;28;20232;-60
2023/08/04 09:53:44;;;;;;;1.60;1.27;;;22.80;99.90;;;;;;5028922;28;20217;-60
2023/08/04 09:56:14;;;;;;;1.77;1.67;;;22.70;99.90;;;;;;5027618;28;20225;-60
2023/08/04 09:58:43;;;;;;;1.30;1.30;;;22.90;99.90;;;;;;5029089;28;20294;-60
2023/08/04 10:01:13;;;;;;;13.65;1.50;;;23.50;99.90;;;;;;5027020;28;20257;-60
2023/08/04 10:03:44;;;;;;;1.40;1.30;;;24.20;99.90;;;;;;5021333;28;20228;-60
2023/08/04 10:06:13;;;;;;;1.30;1.20;;;24.90;99.90;;;;;;5024782;28;20223;-60
2023/08/04 10:08:41;;;;;;;2.72;1.40;;;25.00;99.90;;;;;;5023627;28;20227;-60
2023/08/04 10:11:10;;;;;;;2.45;1.33;;;24.90;99.90;;;;;;5027791;28;20231;-60
2023/08/04 10:13:42;;;;;;;1.30;1.30;;;24.50;99.90;;;;;;5027895;28;20231;-60
2023/08/04 10:16:16;;;;;;;1.30;1.20;;;23.60;99.90;;;;;;5029653;28;20231;-60
2023/08/04 10:18:53;;;;;;;3.20;1.73;;;23.10;99.90;;;;;;5032808;28;20207;-60
2023/08/04 10:21:28;;;;;;;1.40;1.30;;;23.10;99.90;;;;;;5031136;28;20300;-60
2023/08/04 10:23:59;;;;;;;3.35;1.60;;;24.00;99.90;;;;;;5031086;28;20235;-60
2023/08/04 10:26:28;;;;;;;2.13;1.73;;;25.20;99.90;;;;;;5019640;28;20223;-60
2023/08/04 10:29:06;;;;;;;2.47;1.52;;;25.90;99.90;;;;;;5027019;28;20722;-61
2023/08/04 10:31:51;;;;;;;1.65;1.50;;;26.50;99.90;;;;;;5026680;28;20698;-61
2023/08/04 10:34:25;;;;;;;2.28;1.70;;;27.20;99.90;;;;;;5030789;28;20663;-61
2023/08/04 10:36:56;;;;;;;1.70;1.60;;;27.20;99.90;;;;;;5030206;28;20190;-61
2023/08/04 10:39:28;;;;;;;2.97;2.22;;;27.20;99.90;;;;;;5030615;28;20190;-61
2023/08/04 10:42:00;;;;;;;2.25;1.65;;;27.00;99.90;;;;;;5023494;28;20225;-61
2023/08/04 10:44:31;;;;;;;2.08;1.88;;;27.10;99.90;;;;;;5029103;28;20217;-61
2023/08/04 10:47:04;;;;;;;1.77;1.65;;;27.30;99.90;;;;;;5028200;28;20221;-61
2023/08/04 10:49:33;;;;;;;1.60;1.50;;;27.80;99.90;;;;;;5025990;28;20568;-61
2023/08/04 10:52:01;;;;;;;4.10;1.80;;;27.90;99.90;;;;;;5034746;28;21781;-61
2023/08/04 10:54:30;;;;;;;1.95;1.75;;;28.10;99.90;;;;;;5043860;28;20194;-61
2023/08/04 10:56:58;;;;;;;3.75;1.67;;;28.40;99.90;;;;;;5044447;28;20221;-61
2023/08/04 10:59:27;;;;;;;1.77;1.52;;;28.50;99.90;;;;;;5035426;28;20641;-61
2023/08/04 11:01:55;;;;;;;3.95;2.03;;;28.10;99.90;;;;;;5053309;28;20230;-61
2023/08/04 11:04:25;;;;;;;2.45;1.70;;;26.90;99.90;;;;;;5057086;28;20259;-61
2023/08/04 11:06:58;;;;;;;2.50;1.60;;;26.10;99.90;;;;;;5052632;28;20199;-60
2023/08/04 11:09:27;;;;;;;1.63;1.52;;;25.70;99.90;;;;;;5051695;28;20189;-60
2023/08/04 11:11:56;;;;;;;4.53;1.80;;;25.20;99.90;;;;;;5048687;28;20317;-60
2023/08/04 11:14:25;;;;;;;3.88;1.80;;;24.60;99.90;;;;;;5052288;28;22138;-60
2023/08/04 11:16:58;;;;;;;2.30;1.70;;;24.10;99.90;;;;;;5046766;28;20256;-60
2023/08/04 11:19:29;;;;;;;2.00;1.80;;;23.70;99.90;;;;;;5041224;28;20311;-60
2023/08/04 11:21:58;;;;;;;3.03;1.60;;;23.20;99.90;;;;;;5039416;28;20201;-59
2023/08/04 11:24:26;;;;;;;2.57;1.80;;;22.70;99.90;;;;;;5044043;28;20196;-59
2023/08/04 11:26:55;;;;;;;2.07;1.77;;;22.60;99.90;;;;;;5044348;28;20216;-60
2023/08/04 11:29:26;;;;;;;2.33;1.70;;;23.20;99.90;;;;;;5046331;28;20248;-60
2023/08/04 11:31:54;;;;;;;2.97;1.50;;;24.20;99.90;;;;;;5041789;28;20241;-60
2023/08/04 11:34:23;;;;;;;1.92;1.60;;;25.20;99.90;;;;;;5042221;28;20228;-60
2023/08/04 11:36:52;;;;;;;2.00;1.90;;;25.30;99.90;;;;;;5042999;28;20198;-59
2023/08/04 11:39:21;;;;;;;3.47;2.00;;;25.00;99.90;;;;;;5035721;28;20200;-60
2023/08/04 11:41:49;;;;;;;6.03;2.70;;;24.30;99.90;;;;;;5013775;28;20225;-59
2023/08/04 11:44:18;;;;;;;8.40;2.60;;;23.30;99.90;;;;;;5047385;28;20255;-59
2023/08/04 11:46:46;;;;;;;2.00;1.90;;;22.30;99.90;;;;;;5031236;28;20225;-59
2023/08/04 11:49:15;;;;;;;2.47;2.03;;;21.40;99.90;;;;;;5046985;28;20279;-59
2023/08/04 11:51:44;;;;;;;4.00;2.10;;;20.80;99.90;;;;;;5040831;28;20227;-59
2023/08/04 11:54:23;;;;;;;2.50;2.30;;;20.50;99.90;;;;;;5045230;28;20609;-59
2023/08/04 11:56:54;;;;;;;4.80;2.77;;;20.30;99.90;;;;;;5046643;28;20214;-59
2023/08/04 11:59:23;;;;;;;4.40;2.73;;;20.20;99.90;;;;;;5041375;28;20230;-60
2023/08/04 12:02:04;;;;;;;3.10;2.80;;;20.30;99.90;;;;;;5042898;28;20304;-60
2023/08/04 12:04:35;;;;;;;5.20;2.80;;;20.30;99.90;;;;;;5045325;28;20297;-59
2023/08/04 12:07:06;;;;;;;2.57;2.40;;;20.50;99.90;;;;;;5045733;28;20211;-60
2023/08/04 12:09:36;;;;;;;2.23;2.13;;;20.70;99.90;;;;;;5045266;28;20198;-60
2023/08/04 12:12:05;;;;;;;3.43;2.70;;;20.90;99.90;;;;;;5036232;28;20231;-60
2023/08/04 12:14:33;;;;;;;3.80;2.67;;;20.90;99.90;;;;;;5048906;28;20240;-60
2023/08/04 12:17:34;;;;;;;4.17;2.30;;;21.30;99.90;;;;;;5046572;28;20226;-60
2023/08/04 12:20:04;;;;;;;3.60;2.13;;;21.80;99.90;;;;;;5038325;28;20241;-59
2023/08/04 12:22:35;;;;;;;3.23;2.47;;;22.10;99.90;;;;;;5048284;28;20674;-60
2023/08/04 12:25:06;;;;;;;2.93;2.40;;;21.90;99.90;;;;;;5048817;28;20227;-59
2023/08/04 12:27:35;;;;;;;2.70;2.47;;;21.70;99.90;;;;;;5049445;28;20386;-59
2023/08/04 12:30:04;;;;;;;3.00;2.80;;;21.50;99.90;;;;;;5052334;28;20223;-59
2023/08/04 12:32:32;;;;;;;4.90;3.03;;;21.30;99.90;;;;;;5050095;28;20222;-59
2023/08/04 12:35:01;;;;;;;3.97;3.00;;;21.20;99.90;;;;;;5046875;28;20748;-59
2023/08/04 12:37:29;;;;;;;4.20;2.67;;;21.20;99.90;;;;;;5045146;28;20234;-60
2023/08/04 12:39:57;;;;;;;4.17;2.63;;;21.30;99.90;;;;;;5043623;28;20600;-60
2023/08/04 12:42:27;;;;;;;3.57;2.63;;;21.30;99.90;;;;;;5047390;28;20303;-59
2023/08/04 12:44:55;;;;;;;2.60;2.50;;;21.30;99.90;;;;;;5046641;28;20303;-59
2023/08/04 12:47:24;;;;;;;2.47;2.20;;;21.40;99.90;;;;;;5044386;28;20225;-59
2023/08/04 12:49:52;;;;;;;2.37;2.10;;;21.30;99.90;;;;;;5048296;28;20230;-60
2023/08/04 12:52:21;;;;;;;1.90;1.90;;;21.50;99.90;;;;;;5050438;28;20321;-60